Time;durP1;ratioP1;P1;durP2;ratioP2;P2;SDS_P1;SDS_P2;PMS_P1;PMS_P2;Temp;Humidity;BMP_temperature;BMP_pressure;BME280_temperature;BME280_humidity;BME280_pressure;Samples;Min_cycle;Max_cycle;Signal;HPM_P1;HPM_P2
2023/05/02 00:01:07;;;;;;;16.08;8.85;;;13.70;99.90;;;;;;4132154;28;20058;-55
2023/05/02 00:03:09;;;;;;;14.18;7.15;;;13.70;99.90;;;;;;4115336;28;20054;-55
2023/05/02 00:05:11;;;;;;;17.83;7.93;;;13.70;99.90;;;;;;4132888;28;20046;-54
2023/05/02 00:07:14;;;;;;;11.02;7.05;;;13.70;99.90;;;;;;4132890;28;20133;-54
2023/05/02 00:09:16;;;;;;;12.65;7.32;;;13.70;99.90;;;;;;4131801;28;20112;-54
2023/05/02 00:11:18;;;;;;;12.00;6.57;;;13.70;99.90;;;;;;4132616;28;20080;-54
2023/05/02 00:13:21;;;;;;;14.57;7.47;;;13.70;99.90;;;;;;4132768;28;20050;-54
2023/05/02 00:15:26;;;;;;;11.85;6.93;;;13.70;99.90;;;;;;4132365;28;20073;-54
2023/05/02 00:17:28;;;;;;;17.20;8.07;;;13.70;99.90;;;;;;4132912;28;20054;-54
2023/05/02 00:19:30;;;;;;;15.57;7.40;;;13.60;99.90;;;;;;4114330;28;20047;-54
2023/05/02 00:21:32;;;;;;;18.08;7.38;;;13.50;99.90;;;;;;4132352;28;20129;-55
2023/05/02 00:23:34;;;;;;;12.95;6.85;;;13.60;99.90;;;;;;4132633;28;20054;-55
2023/05/02 00:25:42;;;;;;;11.75;6.50;;;13.60;99.90;;;;;;4132646;28;20042;-55
2023/05/02 00:27:45;;;;;;;11.00;6.68;;;13.70;99.90;;;;;;4132428;28;20046;-55
2023/05/02 00:29:51;;;;;;;11.88;5.95;;;13.70;99.90;;;;;;4113753;28;20053;-54
2023/05/02 00:31:53;;;;;;;14.77;6.38;;;13.60;99.90;;;;;;4132251;28;20058;-54
2023/05/02 00:33:55;;;;;;;13.30;6.32;;;13.60;99.90;;;;;;4132295;28;20144;-54
2023/05/02 00:35:57;;;;;;;8.90;5.45;;;13.70;99.90;;;;;;4132593;28;20133;-55
2023/05/02 00:37:59;;;;;;;16.15;6.70;;;13.70;99.90;;;;;;4132742;28;20054;-56
2023/05/02 00:40:02;;;;;;;11.20;5.45;;;13.70;99.90;;;;;;4131377;28;20078;-55
2023/05/02 00:42:05;;;;;;;10.77;6.05;;;13.70;99.90;;;;;;4115114;28;20047;-55
2023/05/02 00:44:07;;;;;;;8.52;5.43;;;13.60;99.90;;;;;;4132043;28;20506;-55
2023/05/02 00:46:11;;;;;;;10.85;5.75;;;13.60;99.90;;;;;;4115095;28;20054;-55
2023/05/02 00:48:14;;;;;;;10.80;6.43;;;13.50;99.90;;;;;;4132177;28;20053;-55
2023/05/02 00:50:17;;;;;;;12.98;5.88;;;13.50;99.90;;;;;;4131014;28;20587;-55
2023/05/02 00:52:19;;;;;;;12.43;6.63;;;13.60;99.90;;;;;;4132081;28;20595;-55
2023/05/02 00:54:21;;;;;;;8.68;5.93;;;13.60;99.90;;;;;;4131965;28;20049;-54
2023/05/02 00:56:23;;;;;;;11.43;6.43;;;13.60;99.90;;;;;;4131928;28;20057;-54
2023/05/02 00:58:26;;;;;;;11.93;6.43;;;13.60;99.90;;;;;;4131635;28;20046;-54
2023/05/02 01:00:38;;;;;;;12.50;6.85;;;13.60;99.90;;;;;;4130094;28;20058;-55
2023/05/02 01:02:52;;;;;;;10.63;6.80;;;13.50;99.90;;;;;;4132072;28;20046;-54
2023/05/02 01:05:01;;;;;;;13.70;7.25;;;13.40;99.90;;;;;;4131685;28;20046;-55
2023/05/02 01:07:17;;;;;;;11.10;5.72;;;13.40;99.90;;;;;;4131932;28;20068;-54
2023/05/02 01:09:31;;;;;;;10.82;6.03;;;13.40;99.90;;;;;;4130925;28;20109;-55
2023/05/02 01:11:41;;;;;;;13.73;5.90;;;13.40;99.90;;;;;;4131510;28;20109;-55
2023/05/02 01:13:45;;;;;;;9.98;7.15;;;13.40;99.90;;;;;;4131971;28;20137;-55
2023/05/02 01:15:50;;;;;;;11.55;6.43;;;13.30;99.90;;;;;;4131477;28;20399;-54
2023/05/02 01:17:55;;;;;;;11.18;6.00;;;13.30;99.90;;;;;;4131843;28;20057;-55
2023/05/02 01:20:01;;;;;;;17.55;7.50;;;13.40;99.90;;;;;;4130700;28;20419;-54
2023/05/02 01:22:07;;;;;;;13.27;6.70;;;13.30;99.90;;;;;;4131448;28;20085;-54
2023/05/02 01:24:15;;;;;;;11.48;6.18;;;13.30;99.90;;;;;;4131521;28;20042;-54
2023/05/02 01:26:25;;;;;;;12.68;6.43;;;13.30;99.90;;;;;;4131278;28;20089;-54
2023/05/02 01:28:36;;;;;;;11.35;6.63;;;13.30;99.90;;;;;;4131699;28;20467;-54
2023/05/02 01:30:42;;;;;;;11.65;6.15;;;13.30;99.90;;;;;;4130764;28;20049;-55
2023/05/02 01:32:46;;;;;;;12.10;7.75;;;13.30;99.90;;;;;;4131629;28;20117;-55
2023/05/02 01:34:51;;;;;;;12.60;6.60;;;13.30;99.90;;;;;;4131468;28;20040;-55
2023/05/02 01:36:53;;;;;;;13.07;6.47;;;13.40;99.90;;;;;;4131942;28;20403;-54
2023/05/02 01:38:57;;;;;;;11.20;6.57;;;13.40;99.90;;;;;;4131224;28;20089;-54
2023/05/02 01:41:04;;;;;;;14.50;6.95;;;13.40;99.90;;;;;;4129998;28;20046;-55
2023/05/02 01:43:07;;;;;;;11.00;6.63;;;13.30;99.90;;;;;;4131355;28;20050;-54
2023/05/02 01:45:11;;;;;;;12.88;7.25;;;13.30;99.90;;;;;;4131450;28;20054;-54
2023/05/02 01:47:15;;;;;;;13.77;7.47;;;13.30;99.90;;;;;;4114174;28;20047;-55
2023/05/02 01:49:19;;;;;;;11.45;6.65;;;13.20;99.90;;;;;;4130993;28;20042;-55
2023/05/02 01:51:28;;;;;;;13.68;6.90;;;13.30;99.90;;;;;;4130753;28;20043;-55
2023/05/02 01:53:34;;;;;;;12.98;7.35;;;13.30;99.90;;;;;;4131219;28;20093;-54
2023/05/02 01:55:37;;;;;;;12.13;6.70;;;13.30;99.90;;;;;;4131019;28;20085;-54
2023/05/02 01:57:43;;;;;;;17.17;8.27;;;13.30;99.90;;;;;;4131215;28;20458;-55
2023/05/02 01:59:48;;;;;;;14.63;7.15;;;13.30;99.90;;;;;;4130456;28;20700;-55
2023/05/02 02:01:51;;;;;;;12.98;8.60;;;13.20;99.90;;;;;;4131301;28;20137;-55
2023/05/02 02:03:56;;;;;;;15.88;8.68;;;13.10;99.90;;;;;;4131306;28;20058;-54
2023/05/02 02:05:59;;;;;;;18.00;8.35;;;13.20;99.90;;;;;;4131338;28;20042;-55
2023/05/02 02:08:02;;;;;;;13.55;7.45;;;13.10;99.90;;;;;;4131189;28;20130;-55
2023/05/02 02:10:05;;;;;;;11.13;7.00;;;13.10;99.90;;;;;;4130077;28;20054;-55
2023/05/02 02:12:11;;;;;;;14.32;7.85;;;13.20;99.90;;;;;;4131941;28;20046;-55
2023/05/02 02:14:17;;;;;;;14.52;8.38;;;13.20;99.90;;;;;;4134582;28;20560;-53
2023/05/02 02:16:27;;;;;;;12.07;7.07;;;13.20;99.90;;;;;;4134444;28;20050;-55
2023/05/02 02:18:35;;;;;;;13.70;7.70;;;13.10;99.90;;;;;;4134461;28;20046;-54
2023/05/02 02:20:44;;;;;;;12.77;7.32;;;13.20;99.90;;;;;;4133959;28;20242;-59
2023/05/02 02:22:47;;;;;;;15.48;9.20;;;13.20;99.90;;;;;;4134438;28;20074;-53
2023/05/02 02:24:51;;;;;;;16.17;8.70;;;13.20;99.90;;;;;;4134238;28;20050;-53
2023/05/02 02:26:55;;;;;;;16.60;9.10;;;13.10;99.90;;;;;;4117161;28;20046;-54
2023/05/02 02:28:58;;;;;;;15.95;8.98;;;13.00;99.90;;;;;;4134626;28;20050;-54
2023/05/02 02:31:01;;;;;;;17.55;8.52;;;13.10;99.90;;;;;;4133320;28;20133;-54
2023/05/02 02:33:03;;;;;;;12.38;8.05;;;13.10;99.90;;;;;;4134355;28;20053;-54
2023/05/02 02:35:06;;;;;;;14.63;8.85;;;13.00;99.90;;;;;;4134386;28;20141;-55
2023/05/02 02:37:17;;;;;;;11.35;8.38;;;13.10;99.90;;;;;;4134703;28;20046;-54
2023/05/02 02:39:41;;;;;;;16.27;9.02;;;13.10;99.90;;;;;;4133942;28;20105;-54
2023/05/02 02:41:53;;;;;;;15.18;8.40;;;13.10;99.90;;;;;;4134170;28;20054;-55
2023/05/02 02:44:03;;;;;;;16.98;9.38;;;13.00;99.90;;;;;;4134374;28;20113;-54
2023/05/02 02:46:15;;;;;;;16.23;9.98;;;13.00;99.90;;;;;;4134113;28;20427;-54
2023/05/02 02:48:26;;;;;;;18.23;9.80;;;12.90;99.90;;;;;;4134110;28;20073;-55
2023/05/02 02:50:32;;;;;;;14.45;8.55;;;12.90;99.90;;;;;;4133066;28;20132;-53
2023/05/02 02:52:51;;;;;;;16.30;10.05;;;12.90;99.90;;;;;;4134074;28;20048;-55
2023/05/02 02:54:59;;;;;;;14.75;9.18;;;13.00;99.90;;;;;;4133848;28;20527;-54
2023/05/02 02:57:08;;;;;;;12.70;9.20;;;12.90;99.90;;;;;;4134108;28;20042;-55
2023/05/02 02:59:18;;;;;;;19.08;9.43;;;12.90;99.90;;;;;;4133900;28;20054;-54
2023/05/02 03:01:23;;;;;;;12.80;8.45;;;12.80;99.90;;;;;;4115546;28;20400;-54
2023/05/02 03:03:27;;;;;;;16.83;9.13;;;12.90;99.90;;;;;;4133746;28;20050;-55
2023/05/02 03:05:32;;;;;;;16.98;11.10;;;12.90;99.90;;;;;;4134075;28;20046;-55
2023/05/02 03:07:35;;;;;;;19.03;10.67;;;12.80;99.90;;;;;;4133402;28;20112;-54
2023/05/02 03:09:41;;;;;;;20.58;11.02;;;12.70;99.90;;;;;;4133023;28;20067;-55
2023/05/02 03:11:44;;;;;;;14.43;10.20;;;12.70;99.90;;;;;;4133605;28;20533;-55
2023/05/02 03:13:47;;;;;;;20.08;10.40;;;12.70;99.90;;;;;;4133757;28;20086;-52
2023/05/02 03:16:24;;;;;;;20.92;12.18;;;12.80;99.90;;;;;;4133367;28;20076;-53
2023/05/02 03:18:26;;;;;;;;;;;12.80;99.90;;;;;;4133949;28;20066;-55
2023/05/02 03:20:27;;;;;;;17.08;10.25;;;12.70;99.90;;;;;;4132492;28;19926;-55
2023/05/02 03:22:29;;;;;;;18.20;10.68;;;12.70;99.90;;;;;;4132891;28;20078;-54
2023/05/02 03:24:33;;;;;;;19.58;10.23;;;12.80;99.90;;;;;;4132259;28;20081;-55
2023/05/02 03:26:35;;;;;;;17.40;10.52;;;12.80;99.90;;;;;;4133206;28;20115;-54
2023/05/02 03:28:37;;;;;;;22.35;11.77;;;12.80;99.90;;;;;;4116039;28;20046;-55
2023/05/02 03:30:40;;;;;;;18.80;10.65;;;12.70;99.90;;;;;;4132506;28;20459;-54
2023/05/02 03:32:42;;;;;;;21.05;11.90;;;12.70;99.90;;;;;;4133506;28;20117;-55
2023/05/02 03:34:44;;;;;;;15.20;10.90;;;12.70;99.90;;;;;;4133398;28;20042;-54
2023/05/02 03:36:46;;;;;;;22.38;11.52;;;12.70;99.90;;;;;;4132915;28;20172;-55
2023/05/02 03:38:49;;;;;;;21.90;10.77;;;12.70;99.90;;;;;;4133492;28;20050;-54
2023/05/02 03:40:55;;;;;;;22.55;10.82;;;12.60;99.90;;;;;;4132095;28;20077;-52
2023/05/02 03:42:57;;;;;;;16.92;11.40;;;12.70;99.90;;;;;;4133344;28;20503;-52
2023/05/02 03:44:59;;;;;;;15.88;10.95;;;12.60;99.90;;;;;;4133277;28;20050;-53
2023/05/02 03:47:02;;;;;;;17.73;11.68;;;12.70;99.90;;;;;;4133302;28;20046;-52
2023/05/02 03:49:04;;;;;;;21.58;12.60;;;12.60;99.90;;;;;;4133459;28;20046;-51
2023/05/02 03:51:08;;;;;;;19.83;12.25;;;12.60;99.90;;;;;;4132352;28;20042;-52
2023/05/02 03:53:10;;;;;;;18.20;11.60;;;12.50;99.90;;;;;;4133739;28;20403;-52
2023/05/02 03:55:13;;;;;;;15.50;10.38;;;12.50;99.90;;;;;;4134174;28;20042;-54
2023/05/02 03:57:16;;;;;;;21.17;11.13;;;12.60;99.90;;;;;;4133340;28;20046;-58
2023/05/02 03:59:18;;;;;;;20.73;12.05;;;12.60;99.90;;;;;;4133650;28;20325;-56
2023/05/02 04:01:20;;;;;;;18.83;12.38;;;12.60;99.90;;;;;;4132820;28;20142;-56
2023/05/02 04:03:22;;;;;;;22.33;12.52;;;12.60;99.90;;;;;;4133858;28;20058;-54
2023/05/02 04:05:25;;;;;;;17.85;9.45;;;12.70;99.90;;;;;;4133631;28;20046;-54
2023/05/02 04:07:27;;;;;;;19.00;11.02;;;12.60;99.90;;;;;;4133678;28;20074;-56
2023/05/02 04:09:29;;;;;;;20.40;12.00;;;12.70;99.90;;;;;;4133247;28;20198;-53
2023/05/02 04:11:31;;;;;;;21.80;12.30;;;12.50;99.90;;;;;;4131802;28;20137;-53
2023/05/02 04:13:35;;;;;;;21.83;12.77;;;12.50;99.90;;;;;;4132769;28;20483;-54
2023/05/02 04:15:37;;;;;;;19.45;12.63;;;12.50;99.90;;;;;;4132618;28;20052;-54
2023/05/02 04:17:40;;;;;;;25.38;13.15;;;12.40;99.90;;;;;;4132607;28;20089;-53
2023/05/02 04:19:42;;;;;;;23.98;12.80;;;12.40;99.90;;;;;;4132759;28;20100;-53
2023/05/02 04:21:44;;;;;;;23.77;12.75;;;12.40;99.90;;;;;;4114168;28;20062;-55
2023/05/02 04:23:46;;;;;;;20.73;12.52;;;12.40;99.90;;;;;;4132836;28;20052;-52
2023/05/02 04:25:52;;;;;;;22.15;12.50;;;12.50;99.90;;;;;;4132461;28;20088;-56
2023/05/02 04:27:54;;;;;;;18.60;11.95;;;12.40;99.90;;;;;;4115402;28;20491;-52
2023/05/02 04:29:58;;;;;;;20.80;12.90;;;12.50;99.90;;;;;;4131715;28;20539;-52
2023/05/02 04:32:00;;;;;;;18.60;12.23;;;12.50;99.90;;;;;;4132178;28;20077;-51
2023/05/02 04:34:03;;;;;;;20.15;12.75;;;12.40;99.90;;;;;;4132425;28;20141;-54
2023/05/02 04:36:06;;;;;;;18.45;11.38;;;12.40;99.90;;;;;;4131846;28;20077;-54
2023/05/02 04:38:07;;;;;;;22.70;12.93;;;12.40;99.90;;;;;;4132394;28;20476;-55
2023/05/02 04:40:11;;;;;;;29.58;15.00;;;12.50;99.90;;;;;;4131504;28;20081;-54
2023/05/02 04:42:13;;;;;;;21.83;13.48;;;12.50;99.90;;;;;;4132116;28;20077;-54
2023/05/02 04:44:15;;;;;;;26.80;14.60;;;12.50;99.90;;;;;;4132409;28;20051;-53
2023/05/02 04:46:19;;;;;;;21.08;12.82;;;12.50;99.90;;;;;;4132393;28;20053;-53
2023/05/02 04:48:21;;;;;;;21.95;12.60;;;12.50;99.90;;;;;;4132160;28;20050;-54
2023/05/02 04:50:23;;;;;;;22.83;13.20;;;12.40;99.90;;;;;;4130884;28;20523;-54
2023/05/02 04:52:25;;;;;;;26.75;15.85;;;12.40;99.90;;;;;;4131972;28;20116;-53
2023/05/02 04:54:28;;;;;;;25.60;13.80;;;12.40;99.90;;;;;;4132126;28;20047;-53
2023/05/02 04:56:30;;;;;;;23.13;12.20;;;12.40;99.90;;;;;;4132057;28;20061;-53
2023/05/02 04:58:34;;;;;;;22.52;13.10;;;12.50;99.90;;;;;;4132031;28;20380;-53
2023/05/02 05:00:36;;;;;;;22.15;14.43;;;12.50;99.90;;;;;;4131320;28;20415;-54
2023/05/02 05:02:39;;;;;;;25.27;14.55;;;12.50;99.90;;;;;;4132004;28;20054;-53
2023/05/02 05:04:42;;;;;;;21.42;14.27;;;12.40;99.90;;;;;;4131613;28;20112;-53
2023/05/02 05:06:46;;;;;;;26.15;16.13;;;12.40;99.90;;;;;;4131883;28;20050;-53
2023/05/02 05:08:48;;;;;;;18.70;12.23;;;12.50;99.90;;;;;;4131919;28;20054;-52
2023/05/02 05:10:50;;;;;;;22.63;14.40;;;12.60;99.90;;;;;;4131004;28;20050;-53
2023/05/02 05:12:52;;;;;;;22.85;13.77;;;12.60;99.90;;;;;;4131855;28;20068;-54
2023/05/02 05:14:54;;;;;;;27.08;15.52;;;12.50;99.90;;;;;;4131819;28;20042;-54
2023/05/02 05:16:57;;;;;;;32.80;16.42;;;12.40;99.90;;;;;;4131704;28;20058;-54
2023/05/02 05:19:01;;;;;;;32.38;15.32;;;12.50;99.90;;;;;;4130589;28;20042;-54
2023/05/02 05:21:03;;;;;;;25.98;14.80;;;12.50;99.90;;;;;;4113503;28;20053;-53
2023/05/02 05:23:05;;;;;;;21.70;14.35;;;12.50;99.90;;;;;;4131411;28;20058;-53
2023/05/02 05:25:10;;;;;;;27.35;15.18;;;12.60;99.90;;;;;;4131512;28;20051;-54
2023/05/02 05:27:12;;;;;;;23.88;14.90;;;12.60;99.90;;;;;;4132116;28;20054;-51
2023/05/02 05:29:14;;;;;;;28.55;17.10;;;12.70;99.90;;;;;;4131833;28;20050;-51
2023/05/02 05:31:17;;;;;;;28.98;15.25;;;12.70;99.90;;;;;;4130830;28;20050;-53
2023/05/02 05:33:19;;;;;;;21.98;13.88;;;12.60;99.90;;;;;;4131463;28;20046;-54
2023/05/02 05:35:23;;;;;;;24.45;15.18;;;12.70;99.90;;;;;;4131670;28;20068;-53
2023/05/02 05:37:25;;;;;;;29.85;16.75;;;12.70;99.90;;;;;;4131395;28;20056;-53
2023/05/02 05:39:27;;;;;;;25.70;15.15;;;12.60;99.90;;;;;;4131965;28;20057;-55
2023/05/02 05:41:30;;;;;;;23.60;14.88;;;12.70;99.90;;;;;;4130510;28;20171;-54
2023/05/02 05:43:32;;;;;;;23.55;15.88;;;12.80;99.90;;;;;;4131812;28;20050;-53
2023/05/02 05:45:34;;;;;;;34.67;16.92;;;12.80;99.90;;;;;;4131582;28;20047;-53
2023/05/02 05:47:36;;;;;;;28.48;15.02;;;12.70;99.90;;;;;;4131422;28;20455;-64
2023/05/02 05:49:39;;;;;;;22.77;15.38;;;12.80;99.90;;;;;;4133419;28;20050;-54
2023/05/02 05:51:42;;;;;;;25.42;13.52;;;12.80;99.90;;;;;;4130766;28;20054;-54
2023/05/02 05:53:45;;;;;;;32.17;15.95;;;12.90;99.90;;;;;;4131545;28;20062;-52
2023/05/02 05:55:47;;;;;;;26.90;15.63;;;12.90;99.90;;;;;;4114066;28;20055;-53
2023/05/02 05:57:49;;;;;;;29.73;16.77;;;12.90;99.90;;;;;;4131682;28;20046;-55
2023/05/02 05:59:51;;;;;;;33.50;16.63;;;12.80;99.90;;;;;;4131513;28;20081;-54
2023/05/02 06:01:53;;;;;;;28.08;15.52;;;12.90;99.90;;;;;;4112935;28;20050;-53
2023/05/02 06:03:55;;;;;;;35.80;16.10;;;12.90;99.90;;;;;;4131825;28;20054;-54
2023/05/02 06:05:58;;;;;;;26.25;15.00;;;13.00;99.90;;;;;;4131878;28;20050;-52
2023/05/02 06:08:01;;;;;;;27.73;15.18;;;13.00;99.90;;;;;;4131569;28;20051;-52
2023/05/02 06:10:05;;;;;;;30.55;17.40;;;13.10;99.90;;;;;;4131162;28;20046;-55
2023/05/02 06:12:07;;;;;;;29.70;16.00;;;13.20;99.90;;;;;;4130547;28;20042;-53
2023/05/02 06:14:09;;;;;;;34.17;15.23;;;13.20;99.90;;;;;;4131263;28;20054;-51
2023/05/02 06:16:11;;;;;;;27.98;15.80;;;13.20;99.90;;;;;;4131107;28;20125;-52
2023/05/02 06:18:14;;;;;;;25.38;14.65;;;13.20;99.90;;;;;;4131412;28;20047;-51
2023/05/02 06:20:16;;;;;;;26.20;15.05;;;13.20;99.90;;;;;;4130306;28;20101;-54
2023/05/02 06:22:19;;;;;;;26.33;16.73;;;13.20;99.90;;;;;;4113622;28;20061;-53
2023/05/02 06:24:23;;;;;;;25.90;16.45;;;13.20;99.90;;;;;;4131326;28;20510;-54
2023/05/02 06:26:25;;;;;;;32.17;15.07;;;13.30;99.90;;;;;;4130865;28;20398;-53
2023/05/02 06:28:28;;;;;;;32.38;17.08;;;13.30;99.90;;;;;;4131196;28;20042;-53
2023/05/02 06:30:30;;;;;;;32.47;17.00;;;13.30;99.90;;;;;;4129756;28;20046;-54
2023/05/02 06:32:32;;;;;;;39.42;16.65;;;13.40;99.90;;;;;;4130925;28;20046;-53
2023/05/02 06:34:34;;;;;;;33.45;16.95;;;13.40;99.90;;;;;;4131052;28;20050;-53
2023/05/02 06:36:36;;;;;;;29.92;16.67;;;13.40;99.90;;;;;;4131157;28;20137;-53
2023/05/02 06:38:38;;;;;;;22.52;11.57;;;13.40;99.90;;;;;;4131093;28;20057;-53
2023/05/02 06:40:44;;;;;;;20.85;11.70;;;13.70;99.90;;;;;;4130333;28;20487;-54
2023/05/02 06:42:46;;;;;;;24.90;12.32;;;14.00;99.90;;;;;;4131029;28;20049;-53
2023/05/02 06:44:50;;;;;;;27.20;13.88;;;14.50;99.90;;;;;;4130958;28;20411;-54
2023/05/02 06:46:52;;;;;;;28.58;14.57;;;14.60;99.90;;;;;;4130764;28;20050;-54
2023/05/02 06:48:54;;;;;;;25.58;13.93;;;14.80;99.90;;;;;;4131272;28;20404;-53
2023/05/02 06:50:56;;;;;;;30.35;16.55;;;14.90;99.90;;;;;;4130121;28;20418;-55
2023/05/02 06:52:58;;;;;;;30.83;16.27;;;15.10;99.90;;;;;;4130742;28;20097;-54
2023/05/02 06:55:00;;;;;;;25.35;14.88;;;15.20;99.90;;;;;;4130862;28;20053;-57
2023/05/02 06:57:04;;;;;;;39.15;21.08;;;15.20;99.90;;;;;;4130787;28;20112;-54
2023/05/02 06:59:07;;;;;;;42.28;21.02;;;15.10;99.70;;;;;;4115773;28;20380;-54
2023/05/02 07:01:09;;;;;;;30.63;18.52;;;14.90;99.90;;;;;;4132568;28;20050;-54
2023/05/02 07:03:11;;;;;;;31.45;16.05;;;14.70;99.90;;;;;;4133696;28;20129;-54
2023/05/02 07:05:14;;;;;;;27.17;14.50;;;14.60;99.90;;;;;;4116646;28;20467;-54
2023/05/02 07:07:17;;;;;;;31.33;16.58;;;14.60;99.90;;;;;;4133785;28;20058;-54
2023/05/02 07:09:19;;;;;;;32.70;18.05;;;14.50;99.90;;;;;;4133963;28;20047;-54
2023/05/02 07:11:23;;;;;;;34.42;17.33;;;14.60;99.90;;;;;;4132704;28;20050;-53
2023/05/02 07:13:26;;;;;;;30.83;17.95;;;14.60;99.90;;;;;;4133766;28;20166;-54
2023/05/02 07:15:28;;;;;;;28.40;17.88;;;14.50;99.90;;;;;;4133381;28;20058;-54
2023/05/02 07:17:31;;;;;;;30.05;16.90;;;14.50;99.90;;;;;;4133488;28;20508;-54
2023/05/02 07:19:33;;;;;;;32.08;18.00;;;14.70;99.90;;;;;;4133702;28;20050;-53
2023/05/02 07:21:34;;;;;;;31.40;19.40;;;14.80;99.90;;;;;;4132329;28;20063;-54
2023/05/02 07:23:37;;;;;;;29.42;16.27;;;14.80;99.90;;;;;;4133676;28;20505;-54
2023/05/02 07:25:39;;;;;;;30.35;16.58;;;15.00;99.90;;;;;;4133359;28;20039;-54
2023/05/02 07:27:41;;;;;;;33.10;16.30;;;15.20;99.90;;;;;;4133600;28;20411;-54
2023/05/02 07:29:44;;;;;;;33.30;16.67;;;15.20;99.60;;;;;;4133117;28;20050;-55
2023/05/02 07:31:46;;;;;;;29.98;14.55;;;15.30;99.30;;;;;;4132558;28;20104;-61
2023/05/02 07:33:48;;;;;;;23.05;14.73;;;15.40;99.60;;;;;;4134501;28;20046;-54
2023/05/02 07:35:50;;;;;;;28.08;15.55;;;15.50;99.30;;;;;;4133582;28;20051;-54
2023/05/02 07:37:52;;;;;;;29.23;15.60;;;15.60;99.20;;;;;;4133363;28;20049;-55
2023/05/02 07:39:54;;;;;;;23.80;14.20;;;15.70;99.30;;;;;;4133528;28;20050;-52
2023/05/02 07:41:56;;;;;;;22.52;13.15;;;15.70;99.20;;;;;;4132227;28;20068;-52
2023/05/02 07:43:58;;;;;;;29.48;16.15;;;15.90;99.10;;;;;;4133003;28;20050;-52
2023/05/02 07:46:05;;;;;;;37.80;17.38;;;15.80;98.50;;;;;;4133106;28;20105;-51
2023/05/02 07:48:07;;;;;;;27.17;17.15;;;15.60;98.70;;;;;;4133043;28;20042;-53
2023/05/02 07:50:10;;;;;;;30.27;17.80;;;15.70;98.80;;;;;;4133217;28;20051;-54
2023/05/02 07:52:12;;;;;;;37.45;17.33;;;15.70;98.50;;;;;;4114765;28;20107;-54
2023/05/02 07:54:15;;;;;;;35.72;17.30;;;15.70;98.80;;;;;;4133481;28;20121;-55
2023/05/02 07:56:17;;;;;;;29.13;16.45;;;15.50;99.10;;;;;;4133186;28;20077;-54
2023/05/02 07:58:19;;;;;;;26.35;16.10;;;15.60;98.70;;;;;;4132570;28;20109;-55
2023/05/02 08:00:21;;;;;;;31.70;17.48;;;15.50;98.80;;;;;;4132925;28;20082;-55
2023/05/02 08:02:25;;;;;;;35.15;16.00;;;15.50;98.40;;;;;;4114783;28;20070;-55
2023/05/02 08:04:27;;;;;;;34.00;16.20;;;15.40;98.60;;;;;;4133020;28;20077;-54
2023/05/02 08:06:31;;;;;;;29.70;16.70;;;15.40;98.70;;;;;;4132723;28;20042;-54
2023/05/02 08:08:34;;;;;;;49.13;18.38;;;15.30;98.70;;;;;;4133148;28;20050;-53
2023/05/02 08:10:36;;;;;;;53.50;18.15;;;15.30;98.90;;;;;;4114439;28;20431;-53
2023/05/02 08:12:39;;;;;;;45.88;16.90;;;15.10;98.90;;;;;;4132193;28;20057;-53
2023/05/02 08:14:41;;;;;;;33.05;15.88;;;15.20;98.90;;;;;;4132803;28;20054;-54
2023/05/02 08:16:43;;;;;;;35.15;16.83;;;15.10;98.90;;;;;;4132643;28;20130;-55
2023/05/02 08:18:49;;;;;;;22.77;14.77;;;15.10;98.90;;;;;;4132970;28;20050;-54
2023/05/02 08:20:51;;;;;;;36.55;15.27;;;15.10;99.20;;;;;;4131860;28;20468;-54
2023/05/02 08:22:53;;;;;;;33.63;16.65;;;15.10;99.10;;;;;;4132200;28;20054;-54
2023/05/02 08:24:55;;;;;;;24.90;15.35;;;15.10;99.30;;;;;;4132792;28;20050;-53
2023/05/02 08:26:57;;;;;;;21.65;12.63;;;15.20;99.00;;;;;;4131982;28;20042;-52
2023/05/02 08:29:00;;;;;;;23.33;13.18;;;15.10;99.40;;;;;;4132784;28;20073;-52
2023/05/02 08:31:02;;;;;;;24.58;14.27;;;15.20;98.90;;;;;;4131828;28;20067;-54
2023/05/02 08:33:04;;;;;;;24.30;14.20;;;14.90;99.40;;;;;;4132345;28;20046;-55
2023/05/02 08:35:09;;;;;;;32.30;14.00;;;14.90;99.30;;;;;;4132668;28;20454;-54
2023/05/02 08:37:12;;;;;;;22.08;13.57;;;14.90;99.30;;;;;;4115061;28;20047;-53
2023/05/02 08:39:14;;;;;;;39.50;14.95;;;14.90;99.50;;;;;;4132627;28;20153;-55
2023/05/02 08:41:17;;;;;;;29.13;14.00;;;14.90;99.80;;;;;;4113846;28;20047;-52
2023/05/02 08:43:20;;;;;;;26.38;13.23;;;15.20;99.60;;;;;;4132459;28;20051;-55
2023/05/02 08:45:23;;;;;;;19.23;13.52;;;15.10;99.30;;;;;;4132108;28;20046;-54
2023/05/02 08:47:28;;;;;;;20.17;12.20;;;15.00;99.40;;;;;;4131948;28;20061;-54
2023/05/02 08:49:31;;;;;;;19.52;13.02;;;15.10;99.50;;;;;;4132084;28;20077;-53
2023/05/02 08:51:37;;;;;;;20.83;11.23;;;14.80;99.70;;;;;;4131329;28;20062;-54
2023/05/02 08:53:42;;;;;;;20.10;11.50;;;14.80;99.90;;;;;;4132177;28;20108;-56
2023/05/02 08:55:45;;;;;;;24.15;13.10;;;15.10;99.90;;;;;;4131707;28;20050;-53
2023/05/02 08:57:48;;;;;;;24.75;12.25;;;14.90;99.90;;;;;;4131871;28;20060;-55
2023/05/02 08:59:50;;;;;;;18.27;11.77;;;14.80;99.70;;;;;;4131863;28;20073;-54
2023/05/02 09:01:59;;;;;;;18.42;13.07;;;14.70;99.90;;;;;;4131191;28;20088;-53
2023/05/02 09:04:01;;;;;;;22.23;12.90;;;14.60;99.90;;;;;;4114988;28;20118;-53
2023/05/02 09:06:06;;;;;;;26.80;11.90;;;14.70;99.90;;;;;;4132026;28;20145;-54
2023/05/02 09:08:09;;;;;;;25.75;11.75;;;14.70;99.90;;;;;;4131987;28;20093;-53
2023/05/02 09:10:11;;;;;;;22.02;12.63;;;14.80;99.90;;;;;;4131544;28;20046;-53
2023/05/02 09:12:15;;;;;;;21.00;12.82;;;14.80;99.90;;;;;;4130878;28;20050;-52
2023/05/02 09:14:17;;;;;;;32.03;22.10;;;14.80;99.90;;;;;;4131832;28;20081;-53
2023/05/02 09:16:24;;;;;;;32.67;24.27;;;14.90;99.90;;;;;;4132926;28;20069;-53
2023/05/02 09:18:29;;;;;;;38.95;22.60;;;14.40;99.90;;;;;;4132493;28;20089;-52
2023/05/02 09:20:39;;;;;;;30.33;22.67;;;14.50;99.90;;;;;;4131967;28;20138;-50
2023/05/02 09:22:48;;;;;;;38.47;22.73;;;14.50;99.90;;;;;;4129582;28;20054;-54
2023/05/02 09:24:55;;;;;;;30.58;20.70;;;14.70;99.90;;;;;;4131402;28;20046;-55
2023/05/02 09:26:59;;;;;;;27.65;20.67;;;14.70;99.90;;;;;;4131698;28;20458;-54
2023/05/02 09:29:02;;;;;;;43.03;22.73;;;14.70;99.90;;;;;;4131634;28;20046;-56
2023/05/02 09:31:07;;;;;;;30.52;22.70;;;14.90;99.90;;;;;;4131096;28;20050;-53
2023/05/02 09:33:09;;;;;;;32.15;19.33;;;14.80;99.90;;;;;;4131816;28;20439;-53
2023/05/02 09:35:12;;;;;;;34.05;17.77;;;14.70;99.90;;;;;;4131791;28;20137;-54
2023/05/02 09:37:33;;;;;;;26.15;17.17;;;14.80;99.90;;;;;;4131622;28;20522;-52
2023/05/02 09:39:35;;;;;;;32.30;15.63;;;15.00;99.90;;;;;;4132102;28;20410;-55
2023/05/02 09:41:44;;;;;;;25.15;15.75;;;15.20;99.90;;;;;;4131785;28;20050;-51
2023/05/02 09:43:58;;;;;;;22.60;14.43;;;15.50;99.80;;;;;;4131768;28;20367;-51
2023/05/02 09:46:02;;;;;;;27.38;15.80;;;15.70;99.80;;;;;;4131550;28;20486;-52
2023/05/02 09:48:05;;;;;;;20.50;13.90;;;15.70;99.40;;;;;;4131565;28;20105;-53
2023/05/02 09:50:08;;;;;;;22.02;13.70;;;16.00;98.90;;;;;;4131614;28;20050;-52
2023/05/02 09:52:11;;;;;;;28.10;14.13;;;16.00;99.10;;;;;;4130555;28;20122;-51
2023/05/02 09:54:32;;;;;;;36.50;12.80;;;16.00;99.10;;;;;;4131258;28;20109;-51
2023/05/02 09:56:52;;;;;;;23.52;14.10;;;16.20;98.70;;;;;;4131601;28;20064;-52
2023/05/02 09:59:12;;;;;;;24.33;13.82;;;16.10;98.30;;;;;;4131685;28;20057;-52
2023/05/02 10:01:15;;;;;;;26.42;13.38;;;15.90;98.80;;;;;;4130759;28;20129;-53
2023/05/02 10:03:18;;;;;;;22.63;13.93;;;16.00;98.90;;;;;;4131284;28;20100;-53
2023/05/02 10:05:20;;;;;;;21.17;13.27;;;16.00;98.60;;;;;;4131556;28;20085;-54
2023/05/02 10:07:23;;;;;;;21.42;13.80;;;15.90;98.70;;;;;;4131748;28;20109;-53
2023/05/02 10:09:31;;;;;;;31.10;15.95;;;16.00;98.70;;;;;;4105463;28;20043;-54
2023/05/02 10:11:33;;;;;;;21.73;14.25;;;16.10;98.60;;;;;;4097292;28;20047;-53
2023/05/02 10:13:42;;;;;;;25.85;14.02;;;16.10;98.50;;;;;;4113259;28;20057;-53
2023/05/02 10:15:47;;;;;;;28.92;15.20;;;16.20;98.30;;;;;;4114961;28;20408;-52
2023/05/02 10:17:50;;;;;;;21.40;14.52;;;16.10;98.60;;;;;;4114944;28;20047;-53
2023/05/02 10:19:58;;;;;;;27.55;16.73;;;16.30;98.50;;;;;;4115156;28;20134;-51
2023/05/02 10:22:02;;;;;;;17.90;13.02;;;16.40;98.20;;;;;;4114128;28;20113;-52
2023/05/02 10:24:05;;;;;;;87.00;46.58;;;16.50;98.20;;;;;;4115074;28;20057;-52
2023/05/02 10:26:08;;;;;;;35.78;21.42;;;16.50;98.30;;;;;;4097949;28;20189;-57
2023/05/02 10:28:11;;;;;;;59.30;38.58;;;16.40;98.20;;;;;;4115341;28;20050;-52
2023/05/02 10:30:16;;;;;;;30.63;22.08;;;16.40;98.20;;;;;;4115404;28;20051;-51
2023/05/02 10:32:17;;;;;;;;;;;16.40;98.00;;;;;;4114752;28;20142;-52